sensor_id;sensor_type;location;lat;lon;timestamp;pressure;altitude;pressure_sealevel;temperature;humidity
37610;BME280;23457;51.966;8.230;2023-04-15T00:00:57;100225.44;;;7.69;93.22
37610;BME280;23457;51.966;8.230;2023-04-15T00:03:25;100220.34;;;7.73;93.25
37610;BME280;23457;51.966;8.230;2023-04-15T00:05:52;100223.63;;;7.65;93.46
37610;BME280;23457;51.966;8.230;2023-04-15T00:08:19;100220.03;;;7.57;93.53
37610;BME280;23457;51.966;8.230;2023-04-15T00:10:46;100228.81;;;7.65;92.69
37610;BME280;23457;51.966;8.230;2023-04-15T00:13:13;100223.44;;;7.54;93.72
37610;BME280;23457;51.966;8.230;2023-04-15T00:15:40;100225.94;;;7.51;94.14
37610;BME280;23457;51.966;8.230;2023-04-15T00:18:08;100214.38;;;7.32;95.25
37610;BME280;23457;51.966;8.230;2023-04-15T00:20:35;100212.69;;;7.34;95.37
37610;BME280;23457;51.966;8.230;2023-04-15T00:23:02;100213.53;;;7.33;95.08
37610;BME280;23457;51.966;8.230;2023-04-15T00:25:30;100210.13;;;7.37;94.97
37610;BME280;23457;51.966;8.230;2023-04-15T00:27:56;100208.22;;;7.27;95.28
37610;BME280;23457;51.966;8.230;2023-04-15T00:30:23;100213.34;;;7.26;95.23
37610;BME280;23457;51.966;8.230;2023-04-15T00:32:51;100217.44;;;7.16;96.43
37610;BME280;23457;51.966;8.230;2023-04-15T00:35:19;100207.94;;;7.15;96.27
37610;BME280;23457;51.966;8.230;2023-04-15T00:37:49;100203.50;;;7.08;96.92
37610;BME280;23457;51.966;8.230;2023-04-15T00:40:18;100207.03;;;7.13;96.15
37610;BME280;23457;51.966;8.230;2023-04-15T00:42:46;100202.06;;;7.22;95.74
37610;BME280;23457;51.966;8.230;2023-04-15T00:45:13;100207.06;;;7.14;95.62
37610;BME280;23457;51.966;8.230;2023-04-15T00:47:43;100206.91;;;7.07;96.51
37610;BME280;23457;51.966;8.230;2023-04-15T00:50:10;100198.94;;;6.98;96.22
37610;BME280;23457;51.966;8.230;2023-04-15T00:52:39;100203.28;;;6.99;96.71
37610;BME280;23457;51.966;8.230;2023-04-15T00:55:07;100203.91;;;6.89;97.31
37610;BME280;23457;51.966;8.230;2023-04-15T00:57:34;100216.16;;;6.96;97.86
37610;BME280;23457;51.966;8.230;2023-04-15T01:00:01;100216.75;;;6.86;98.48
37610;BME280;23457;51.966;8.230;2023-04-15T01:02:30;100204.69;;;6.84;98.62
37610;BME280;23457;51.966;8.230;2023-04-15T01:05:00;100205.72;;;6.91;98.04
37610;BME280;23457;51.966;8.230;2023-04-15T01:07:26;100205.75;;;6.93;99.31
37610;BME280;23457;51.966;8.230;2023-04-15T01:09:53;100203.53;;;7.11;99.12
37610;BME280;23457;51.966;8.230;2023-04-15T01:12:20;100198.41;;;7.12;98.26
37610;BME280;23457;51.966;8.230;2023-04-15T01:14:46;100203.63;;;7.14;97.94
37610;BME280;23457;51.966;8.230;2023-04-15T01:17:13;100208.59;;;7.05;98.96
37610;BME280;23457;51.966;8.230;2023-04-15T01:19:40;100193.03;;;7.02;100.00
37610;BME280;23457;51.966;8.230;2023-04-15T01:22:07;100193.28;;;7.14;100.00
37610;BME280;23457;51.966;8.230;2023-04-15T01:24:37;100200.00;;;7.06;100.00
37610;BME280;23457;51.966;8.230;2023-04-15T01:27:04;100194.78;;;7.03;100.00
37610;BME280;23457;51.966;8.230;2023-04-15T01:29:33;100195.63;;;7.03;99.95
37610;BME280;23457;51.966;8.230;2023-04-15T01:32:00;100193.91;;;7.02;100.00
37610;BME280;23457;51.966;8.230;2023-04-15T01:34:26;100200.09;;;7.10;100.00
37610;BME280;23457;51.966;8.230;2023-04-15T01:36:53;100202.47;;;7.01;100.00
37610;BME280;23457;51.966;8.230;2023-04-15T01:39:20;100198.06;;;6.97;100.00
37610;BME280;23457;51.966;8.230;2023-04-15T01:41:47;100204.16;;;6.99;100.00
37610;BME280;23457;51.966;8.230;2023-04-15T01:44:14;100210.13;;;6.95;100.00
37610;BME280;23457;51.966;8.230;2023-04-15T01:46:41;100210.19;;;7.00;100.00
37610;BME280;23457;51.966;8.230;2023-04-15T01:49:08;100217.75;;;6.91;100.00
37610;BME280;23457;51.966;8.230;2023-04-15T01:51:35;100218.72;;;6.96;100.00
37610;BME280;23457;51.966;8.230;2023-04-15T01:54:01;100213.75;;;7.05;100.00
37610;BME280;23457;51.966;8.230;2023-04-15T01:56:28;100216.94;;;6.93;100.00
37610;BME280;23457;51.966;8.230;2023-04-15T01:58:55;100215.09;;;6.88;100.00
37610;BME280;23457;51.966;8.230;2023-04-15T02:01:22;100215.31;;;6.98;100.00
37610;BME280;23457;51.966;8.230;2023-04-15T02:03:49;100216.16;;;6.97;100.00
37610;BME280;23457;51.966;8.230;2023-04-15T02:06:16;100215.09;;;6.88;100.00
37610;BME280;23457;51.966;8.230;2023-04-15T02:08:43;100216.16;;;6.96;100.00
37610;BME280;23457;51.966;8.230;2023-04-15T02:11:10;100227.28;;;6.93;100.00
37610;BME280;23457;51.966;8.230;2023-04-15T02:13:37;100228.72;;;6.80;100.00
37610;BME280;23457;51.966;8.230;2023-04-15T02:16:14;100230.38;;;6.78;100.00
37610;BME280;23457;51.966;8.230;2023-04-15T02:18:44;100232.13;;;6.79;100.00
37610;BME280;23457;51.966;8.230;2023-04-15T02:21:10;100235.38;;;6.72;100.00
37610;BME280;23457;51.966;8.230;2023-04-15T02:23:37;100232.50;;;6.60;100.00
37610;BME280;23457;51.966;8.230;2023-04-15T02:26:03;100234.88;;;6.51;100.00
37610;BME280;23457;51.966;8.230;2023-04-15T02:28:30;100237.69;;;6.60;100.00
37610;BME280;23457;51.966;8.230;2023-04-15T02:30:57;100237.72;;;6.62;100.00
37610;BME280;23457;51.966;8.230;2023-04-15T02:33:25;100232.59;;;6.63;100.00
37610;BME280;23457;51.966;8.230;2023-04-15T02:35:51;100236.84;;;6.61;100.00
37610;BME280;23457;51.966;8.230;2023-04-15T02:38:18;100231.47;;;6.52;100.00
37610;BME280;23457;51.966;8.230;2023-04-15T02:40:46;100244.25;;;6.47;100.00
37610;BME280;23457;51.966;8.230;2023-04-15T02:43:15;100243.97;;;6.37;100.00
37610;BME280;23457;51.966;8.230;2023-04-15T02:45:44;100243.00;;;6.32;100.00
37610;BME280;23457;51.966;8.230;2023-04-15T02:48:10;100245.47;;;6.27;100.00
37610;BME280;23457;51.966;8.230;2023-04-15T02:50:37;100242.06;;;6.28;100.00
37610;BME280;23457;51.966;8.230;2023-04-15T02:53:09;100248.84;;;6.25;100.00
37610;BME280;23457;51.966;8.230;2023-04-15T02:55:36;100243.31;;;6.11;100.00
37610;BME280;23457;51.966;8.230;2023-04-15T02:58:03;100247.69;;;6.14;100.00
37610;BME280;23457;51.966;8.230;2023-04-15T03:00:30;100244.31;;;6.16;100.00
37610;BME280;23457;51.966;8.230;2023-04-15T03:03:04;100241.47;;;6.05;100.00
37610;BME280;23457;51.966;8.230;2023-04-15T03:05:31;100238.78;;;6.02;100.00
37610;BME280;23457;51.966;8.230;2023-04-15T03:07:59;100237.03;;;6.01;100.00
37610;BME280;23457;51.966;8.230;2023-04-15T03:10:27;100238.78;;;6.02;100.00
37610;BME280;23457;51.966;8.230;2023-04-15T03:12:53;100244.09;;;6.08;100.00
37610;BME280;23457;51.966;8.230;2023-04-15T03:15:22;100239.91;;;6.12;100.00
37610;BME280;23457;51.966;8.230;2023-04-15T03:17:51;100240.63;;;6.06;100.00
37610;BME280;23457;51.966;8.230;2023-04-15T03:20:18;100232.75;;;6.02;100.00
37610;BME280;23457;51.966;8.230;2023-04-15T03:22:46;100235.28;;;6.00;100.00
37610;BME280;23457;51.966;8.230;2023-04-15T03:25:14;100238.56;;;5.93;100.00
37610;BME280;23457;51.966;8.230;2023-04-15T03:27:41;100236.81;;;5.92;100.00
37610;BME280;23457;51.966;8.230;2023-04-15T03:30:10;100229.25;;;6.00;100.00
37610;BME280;23457;51.966;8.230;2023-04-15T03:32:39;100235.16;;;5.94;100.00
37610;BME280;23457;51.966;8.230;2023-04-15T03:35:07;100224.66;;;5.88;100.00
37610;BME280;23457;51.966;8.230;2023-04-15T03:37:34;100228.91;;;5.88;100.00
37610;BME280;23457;51.966;8.230;2023-04-15T03:40:01;100232.13;;;5.79;100.00
37610;BME280;23457;51.966;8.230;2023-04-15T03:42:28;100229.69;;;5.85;100.00
37610;BME280;23457;51.966;8.230;2023-04-15T03:44:55;100227.94;;;5.84;100.00
37610;BME280;23457;51.966;8.230;2023-04-15T03:47:22;100227.00;;;5.81;100.00
37610;BME280;23457;51.966;8.230;2023-04-15T03:49:48;100227.44;;;5.66;100.00
37610;BME280;23457;51.966;8.230;2023-04-15T03:52:15;100226.88;;;5.76;100.00
37610;BME280;23457;51.966;8.230;2023-04-15T03:54:41;100239.84;;;5.79;100.00
37610;BME280;23457;51.966;8.230;2023-04-15T03:57:08;100235.44;;;5.75;100.00
37610;BME280;23457;51.966;8.230;2023-04-15T03:59:35;100235.44;;;5.75;100.00
37610;BME280;23457;51.966;8.230;2023-04-15T04:02:01;100236.97;;;5.68;100.00
37610;BME280;23457;51.966;8.230;2023-04-15T04:04:28;100241.25;;;5.68;100.00
37610;BME280;23457;51.966;8.230;2023-04-15T04:06:55;100234.25;;;5.64;100.00
37610;BME280;23457;51.966;8.230;2023-04-15T04:09:22;100244.56;;;5.64;100.00
37610;BME280;23457;51.966;8.230;2023-04-15T04:11:48;100242.72;;;5.60;100.00
37610;BME280;23457;51.966;8.230;2023-04-15T04:14:15;100241.84;;;5.59;100.00
37610;BME280;23457;51.966;8.230;2023-04-15T04:16:41;100252.47;;;5.70;100.00
37610;BME280;23457;51.966;8.230;2023-04-15T04:19:08;100249.63;;;5.61;100.00
37610;BME280;23457;51.966;8.230;2023-04-15T04:21:35;100251.28;;;5.59;100.00
37610;BME280;23457;51.966;8.230;2023-04-15T04:24:02;100250.31;;;5.54;100.00
37610;BME280;23457;51.966;8.230;2023-04-15T04:26:28;100248.59;;;5.54;100.00
37610;BME280;23457;51.966;8.230;2023-04-15T04:28:55;100249.28;;;5.49;100.00
37610;BME280;23457;51.966;8.230;2023-04-15T04:31:21;100253.47;;;5.44;100.00
37610;BME280;23457;51.966;8.230;2023-04-15T04:33:48;100257.03;;;5.49;100.00
37610;BME280;23457;51.966;8.230;2023-04-15T04:36:15;100267.69;;;5.61;100.00
37610;BME280;23457;51.966;8.230;2023-04-15T04:38:41;100261.25;;;5.47;100.00
37610;BME280;23457;51.966;8.230;2023-04-15T04:41:08;100260.63;;;5.54;100.00
37610;BME280;23457;51.966;8.230;2023-04-15T04:43:34;100250.31;;;5.54;100.00
37610;BME280;23457;51.966;8.230;2023-04-15T04:46:01;100265.34;;;5.70;100.00
37610;BME280;23457;51.966;8.230;2023-04-15T04:48:28;100260.28;;;5.73;100.00
37610;BME280;23457;51.966;8.230;2023-04-15T04:50:55;100257.59;;;5.68;100.00
37610;BME280;23457;51.966;8.230;2023-04-15T04:53:21;100259.22;;;5.65;100.00
37610;BME280;23457;51.966;8.230;2023-04-15T04:55:48;100257.59;;;5.68;100.00
37610;BME280;23457;51.966;8.230;2023-04-15T04:58:14;100260.38;;;5.76;100.00
37610;BME280;23457;51.966;8.230;2023-04-15T05:00:41;100260.56;;;5.82;100.00
37610;BME280;23457;51.966;8.230;2023-04-15T05:03:08;100264.41;;;5.96;100.00
37610;BME280;23457;51.966;8.230;2023-04-15T05:05:35;100267.97;;;6.00;100.00
37610;BME280;23457;51.966;8.230;2023-04-15T05:08:04;100268.09;;;6.04;100.00
37610;BME280;23457;51.966;8.230;2023-04-15T05:10:31;100269.66;;;5.99;100.00
37610;BME280;23457;51.966;8.230;2023-04-15T05:12:58;100267.13;;;6.01;100.00
37610;BME280;23457;51.966;8.230;2023-04-15T05:15:24;100272.66;;;6.15;100.00
37610;BME280;23457;51.966;8.230;2023-04-15T05:17:51;100268.56;;;6.23;100.00
37610;BME280;23457;51.966;8.230;2023-04-15T05:20:17;100262.47;;;6.21;100.00
37610;BME280;23457;51.966;8.230;2023-04-15T05:22:44;100271.09;;;6.21;100.00
37610;BME280;23457;51.966;8.230;2023-04-15T05:25:11;100273.66;;;6.20;100.00
37610;BME280;23457;51.966;8.230;2023-04-15T05:27:38;100273.16;;;6.34;100.00
37610;BME280;23457;51.966;8.230;2023-04-15T05:30:05;100272.38;;;6.37;100.00
37610;BME280;23457;51.966;8.230;2023-04-15T05:32:32;100275.03;;;6.40;100.00
37610;BME280;23457;51.966;8.230;2023-04-15T05:34:59;100280.06;;;6.35;100.00
37610;BME280;23457;51.966;8.230;2023-04-15T05:37:26;100293.06;;;6.38;100.00
37610;BME280;23457;51.966;8.230;2023-04-15T05:39:52;100292.41;;;6.45;100.00
37610;BME280;23457;51.966;8.230;2023-04-15T05:42:19;100293.25;;;6.44;100.00
37610;BME280;23457;51.966;8.230;2023-04-15T05:44:46;100296.94;;;6.54;100.00
37610;BME280;23457;51.966;8.230;2023-04-15T05:47:12;100298.75;;;6.58;100.00
37610;BME280;23457;51.966;8.230;2023-04-15T05:49:39;100298.03;;;6.64;100.00
37610;BME280;23457;51.966;8.230;2023-04-15T05:52:06;100303.94;;;6.58;100.00
37610;BME280;23457;51.966;8.230;2023-04-15T05:54:32;100302.31;;;6.63;100.00
37610;BME280;23457;51.966;8.230;2023-04-15T05:56:59;100300.66;;;6.65;100.00
37610;BME280;23457;51.966;8.230;2023-04-15T05:59:26;100297.09;;;6.62;100.00
37610;BME280;23457;51.966;8.230;2023-04-15T06:01:53;100304.50;;;6.48;100.00
37610;BME280;23457;51.966;8.230;2023-04-15T06:04:20;100310.75;;;6.56;100.00
37610;BME280;23457;51.966;8.230;2023-04-15T06:06:47;100312.72;;;6.66;100.00
37610;BME280;23457;51.966;8.230;2023-04-15T06:09:14;100316.28;;;6.71;100.00
37610;BME280;23457;51.966;8.230;2023-04-15T06:11:40;100320.03;;;6.82;100.00
37610;BME280;23457;51.966;8.230;2023-04-15T06:14:07;100318.38;;;6.52;100.00
37610;BME280;23457;51.966;8.230;2023-04-15T06:16:34;100324.28;;;6.80;100.00
37610;BME280;23457;51.966;8.230;2023-04-15T06:19:02;100327.25;;;6.96;100.00
37610;BME280;23457;51.966;8.230;2023-04-15T06:21:29;100321.81;;;7.23;100.00
37610;BME280;23457;51.966;8.230;2023-04-15T06:23:58;100325.53;;;7.32;100.00
37610;BME280;23457;51.966;8.230;2023-04-15T06:26:27;100335.78;;;7.29;100.00
37610;BME280;23457;51.966;8.230;2023-04-15T06:28:53;100338.75;;;7.08;100.00
37610;BME280;23457;51.966;8.230;2023-04-15T06:31:20;100339.75;;;7.15;100.00
37610;BME280;23457;51.966;8.230;2023-04-15T06:33:47;100328.22;;;7.38;100.00
37610;BME280;23457;51.966;8.230;2023-04-15T06:36:13;100335.91;;;7.35;100.00
37610;BME280;23457;51.966;8.230;2023-04-15T06:38:40;100337.22;;;7.54;100.00
37610;BME280;23457;51.966;8.230;2023-04-15T06:41:07;100339.09;;;7.63;100.00
37610;BME280;23457;51.966;8.230;2023-04-15T06:43:33;100332.69;;;7.86;100.00
37610;BME280;23457;51.966;8.230;2023-04-15T06:46:00;100333.28;;;7.71;100.00
37610;BME280;23457;51.966;8.230;2023-04-15T06:48:27;100322.34;;;7.86;100.00
37610;BME280;23457;51.966;8.230;2023-04-15T06:50:54;100332.91;;;7.95;100.00
37610;BME280;23457;51.966;8.230;2023-04-15T06:53:21;100331.19;;;7.96;100.00
37610;BME280;23457;51.966;8.230;2023-04-15T06:55:48;100338.03;;;7.92;100.00
37610;BME280;23457;51.966;8.230;2023-04-15T06:58:14;100335.81;;;8.10;100.00
37610;BME280;23457;51.966;8.230;2023-04-15T07:00:41;100341.16;;;8.19;100.00
37610;BME280;23457;51.966;8.230;2023-04-15T07:03:08;100337.84;;;8.26;100.00
37610;BME280;23457;51.966;8.230;2023-04-15T07:05:36;100340.66;;;8.36;100.00
37610;BME280;23457;51.966;8.230;2023-04-15T07:08:04;100345.84;;;8.36;100.00
37610;BME280;23457;51.966;8.230;2023-04-15T07:10:33;100340.06;;;8.52;100.00
37610;BME280;23457;51.966;8.230;2023-04-15T07:12:59;100343.75;;;8.19;100.00
37610;BME280;23457;51.966;8.230;2023-04-15T07:15:27;100343.00;;;8.26;100.00
37610;BME280;23457;51.966;8.230;2023-04-15T07:17:54;100341.34;;;8.28;100.00
37610;BME280;23457;51.966;8.230;2023-04-15T07:20:21;100341.13;;;8.18;100.00
37610;BME280;23457;51.966;8.230;2023-04-15T07:22:48;100352.06;;;8.03;100.00
37610;BME280;23457;51.966;8.230;2023-04-15T07:25:15;100345.84;;;7.95;100.00
37610;BME280;23457;51.966;8.230;2023-04-15T07:27:43;100352.50;;;7.82;100.00
37610;BME280;23457;51.966;8.230;2023-04-15T07:30:10;100351.09;;;8.00;100.00
37610;BME280;23457;51.966;8.230;2023-04-15T07:32:38;100352.19;;;8.09;100.00
37610;BME280;23457;51.966;8.230;2023-04-15T07:35:05;100354.09;;;8.19;100.00
37610;BME280;23457;51.966;8.230;2023-04-15T07:37:32;100352.19;;;8.09;100.00
37610;BME280;23457;51.966;8.230;2023-04-15T07:39:58;100357.09;;;7.96;100.00
37610;BME280;23457;51.966;8.230;2023-04-15T07:42:25;100363.63;;;8.20;100.00
37610;BME280;23457;51.966;8.230;2023-04-15T07:44:52;100358.78;;;8.36;100.00
37610;BME280;23457;51.966;8.230;2023-04-15T07:47:19;100352.19;;;8.09;100.00
37610;BME280;23457;51.966;8.230;2023-04-15T07:49:46;100360.97;;;8.17;100.00
37610;BME280;23457;51.966;8.230;2023-04-15T07:52:13;100357.88;;;7.93;100.00
37610;BME280;23457;51.966;8.230;2023-04-15T07:54:39;100363.31;;;8.05;100.00
37610;BME280;23457;51.966;8.230;2023-04-15T07:57:06;100363.84;;;8.31;100.00
37610;BME280;23457;51.966;8.230;2023-04-15T07:59:33;100364.56;;;8.25;100.00
37610;BME280;23457;51.966;8.230;2023-04-15T08:02:00;100363.44;;;8.13;100.00
37610;BME280;23457;51.966;8.230;2023-04-15T08:04:26;100364.84;;;8.38;100.00
37610;BME280;23457;51.966;8.230;2023-04-15T08:06:54;100368.28;;;8.37;100.00
37610;BME280;23457;51.966;8.230;2023-04-15T08:09:20;100368.75;;;8.61;100.00
37610;BME280;23457;51.966;8.230;2023-04-15T08:11:48;100370.84;;;8.35;100.00
37610;BME280;23457;51.966;8.230;2023-04-15T08:14:15;100372.06;;;8.54;100.00
37610;BME280;23457;51.966;8.230;2023-04-15T08:16:42;100375.88;;;8.74;100.00
37610;BME280;23457;51.966;8.230;2023-04-15T08:19:08;100381.03;;;8.71;100.00
37610;BME280;23457;51.966;8.230;2023-04-15T08:21:35;100372.50;;;8.78;100.00
37610;BME280;23457;51.966;8.230;2023-04-15T08:24:02;100378.66;;;8.83;100.00
37610;BME280;23457;51.966;8.230;2023-04-15T08:26:29;100379.25;;;8.69;100.00
37610;BME280;23457;51.966;8.230;2023-04-15T08:28:55;100378.66;;;8.83;100.00
37610;BME280;23457;51.966;8.230;2023-04-15T08:31:25;100376.16;;;8.89;100.00
37610;BME280;23457;51.966;8.230;2023-04-15T08:33:52;100379.34;;;8.75;100.00
37610;BME280;23457;51.966;8.230;2023-04-15T08:36:20;100378.09;;;8.53;100.00
37610;BME280;23457;51.966;8.230;2023-04-15T08:38:46;100379.28;;;8.70;100.00
37610;BME280;23457;51.966;8.230;2023-04-15T08:41:21;100373.34;;;8.77;100.00
37610;BME280;23457;51.966;8.230;2023-04-15T08:44:03;100384.75;;;8.85;100.00
37610;BME280;23457;51.966;8.230;2023-04-15T08:46:31;100379.78;;;8.97;100.00
37610;BME280;23457;51.966;8.230;2023-04-15T08:49:03;100384.75;;;8.85;100.00
37610;BME280;23457;51.966;8.230;2023-04-15T08:51:30;100390.06;;;8.94;100.00
37610;BME280;23457;51.966;8.230;2023-04-15T08:53:58;100389.56;;;8.67;100.00
37610;BME280;23457;51.966;8.230;2023-04-15T08:56:25;100383.56;;;8.68;100.00
37610;BME280;23457;51.966;8.230;2023-04-15T08:58:53;100389.66;;;8.70;100.00
37610;BME280;23457;51.966;8.230;2023-04-15T09:01:21;100390.06;;;8.94;100.00
37610;BME280;23457;51.966;8.230;2023-04-15T09:03:48;100385.28;;;8.68;100.00
37610;BME280;23457;51.966;8.230;2023-04-15T09:06:16;100396.56;;;8.71;100.00
37610;BME280;23457;51.966;8.230;2023-04-15T09:08:43;100388.78;;;8.70;100.00
37610;BME280;23457;51.966;8.230;2023-04-15T09:11:10;100395.75;;;8.75;100.00
37610;BME280;23457;51.966;8.230;2023-04-15T09:13:38;100391.81;;;8.95;100.00
37610;BME280;23457;51.966;8.230;2023-04-15T09:16:05;100401.59;;;9.10;100.00
37610;BME280;23457;51.966;8.230;2023-04-15T09:18:35;100402.28;;;9.02;100.00
37610;BME280;23457;51.966;8.230;2023-04-15T09:21:11;100400.03;;;9.21;100.00
37610;BME280;23457;51.966;8.230;2023-04-15T09:23:39;100404.63;;;8.88;100.00
37610;BME280;23457;51.966;8.230;2023-04-15T09:26:07;100398.91;;;9.06;100.00
37610;BME280;23457;51.966;8.230;2023-04-15T09:28:40;100402.25;;;8.98;100.00
37610;BME280;23457;51.966;8.230;2023-04-15T09:31:07;100399.06;;;9.15;100.00
37610;BME280;23457;51.966;8.230;2023-04-15T09:33:53;100404.50;;;9.30;100.00
37610;BME280;23457;51.966;8.230;2023-04-15T09:36:20;100406.19;;;9.28;100.00
37610;BME280;23457;51.966;8.230;2023-04-15T09:38:57;100408.03;;;9.33;100.00
37610;BME280;23457;51.966;8.230;2023-04-15T09:41:25;100421.75;;;9.28;100.00
37610;BME280;23457;51.966;8.230;2023-04-15T09:43:52;100412.31;;;9.31;100.00
37610;BME280;23457;51.966;8.230;2023-04-15T09:46:19;100413.25;;;9.38;100.00
37610;BME280;23457;51.966;8.230;2023-04-15T09:48:46;100419.16;;;9.28;100.00
37610;BME280;23457;51.966;8.230;2023-04-15T09:51:12;100416.53;;;9.26;100.00
37610;BME280;23457;51.966;8.230;2023-04-15T09:53:39;100421.81;;;9.31;100.00
37610;BME280;23457;51.966;8.230;2023-04-15T09:56:06;100420.06;;;9.30;100.00
37610;BME280;23457;51.966;8.230;2023-04-15T09:58:34;100423.19;;;9.11;100.00
37610;BME280;23457;51.966;8.230;2023-04-15T10:01:03;100423.88;;;9.53;100.00
37610;BME280;23457;51.966;8.230;2023-04-15T10:03:33;100427.44;;;9.58;100.00
37610;BME280;23457;51.966;8.230;2023-04-15T10:06:03;100425.31;;;9.33;100.00
37610;BME280;23457;51.966;8.230;2023-04-15T10:08:33;100430.00;;;9.57;100.00
37610;BME280;23457;51.966;8.230;2023-04-15T10:11:02;100426.31;;;9.43;100.00
37610;BME280;23457;51.966;8.230;2023-04-15T10:13:31;100432.47;;;9.48;100.00
37610;BME280;23457;51.966;8.230;2023-04-15T10:16:06;100418.63;;;9.50;100.00
37610;BME280;23457;51.966;8.230;2023-04-15T10:18:47;100432.00;;;9.75;100.00
37610;BME280;23457;51.966;8.230;2023-04-15T10:21:14;100428.44;;;9.68;100.00
37610;BME280;23457;51.966;8.230;2023-04-15T10:23:46;100435.22;;;9.58;100.00
37610;BME280;23457;51.966;8.230;2023-04-15T10:26:14;100436.31;;;9.76;100.00
37610;BME280;23457;51.966;8.230;2023-04-15T10:28:43;100436.25;;;9.69;100.00
37610;BME280;23457;51.966;8.230;2023-04-15T10:31:13;100436.19;;;9.66;100.00
37610;BME280;23457;51.966;8.230;2023-04-15T10:33:41;100442.38;;;9.76;100.00
37610;BME280;23457;51.966;8.230;2023-04-15T10:36:08;100435.38;;;9.69;100.00
37610;BME280;23457;51.966;8.230;2023-04-15T10:38:42;100429.75;;;9.42;100.00
37610;BME280;23457;51.966;8.230;2023-04-15T10:41:25;100428.88;;;9.41;100.00
37610;BME280;23457;51.966;8.230;2023-04-15T10:44:02;100431.22;;;9.26;100.00
37610;BME280;23457;51.966;8.230;2023-04-15T10:49:10;100435.44;;;9.72;100.00
37610;BME280;23457;51.966;8.230;2023-04-15T10:51:45;100434.53;;;9.70;100.00
37610;BME280;23457;51.966;8.230;2023-04-15T10:54:14;100439.63;;;9.65;100.00
37610;BME280;23457;51.966;8.230;2023-04-15T10:56:42;100436.16;;;9.65;100.00
37610;BME280;23457;51.966;8.230;2023-04-15T10:59:09;100448.19;;;9.58;100.00
37610;BME280;23457;51.966;8.230;2023-04-15T11:02:05;100455.13;;;9.59;100.00
37610;BME280;23457;51.966;8.230;2023-04-15T11:07:38;100455.00;;;9.53;100.00
37610;BME280;23457;51.966;8.230;2023-04-15T11:12:48;100462.13;;;9.66;100.00
37610;BME280;23457;51.966;8.230;2023-04-15T11:20:35;100467.94;;;9.50;100.00
37610;BME280;23457;51.966;8.230;2023-04-15T11:23:03;100463.63;;;9.52;100.00
37610;BME280;23457;51.966;8.230;2023-04-15T11:25:41;100456.63;;;9.45;100.00
37610;BME280;23457;51.966;8.230;2023-04-15T11:28:10;100464.50;;;9.50;100.00
37610;BME280;23457;51.966;8.230;2023-04-15T11:30:37;100467.53;;;9.79;100.00
37610;BME280;23457;51.966;8.230;2023-04-15T11:33:07;100469.22;;;9.77;100.00
37610;BME280;23457;51.966;8.230;2023-04-15T11:35:35;100477.75;;;9.68;100.00
37610;BME280;23457;51.966;8.230;2023-04-15T11:38:03;100479.50;;;9.69;100.00
37610;BME280;23457;51.966;8.230;2023-04-15T11:40:30;100479.31;;;9.58;100.00
37610;BME280;23457;51.966;8.230;2023-04-15T11:45:47;100482.97;;;9.69;100.00
37610;BME280;23457;51.966;8.230;2023-04-15T11:48:14;100480.34;;;9.68;100.00
37610;BME280;23457;51.966;8.230;2023-04-15T11:50:41;100496.47;;;9.50;100.00
37610;BME280;23457;51.966;8.230;2023-04-15T11:53:09;100485.25;;;9.50;100.00
37610;BME280;23457;51.966;8.230;2023-04-15T11:55:47;100484.84;;;9.80;100.00
37610;BME280;23457;51.966;8.230;2023-04-15T11:58:22;100486.25;;;9.59;100.00
37610;BME280;23457;51.966;8.230;2023-04-15T12:00:54;100484.31;;;9.46;100.00
37610;BME280;23457;51.966;8.230;2023-04-15T12:03:25;100491.47;;;9.61;100.00
37610;BME280;23457;51.966;8.230;2023-04-15T12:11:33;100504.72;;;9.79;100.00
37610;BME280;23457;51.966;8.230;2023-04-15T12:16:39;100504.38;;;9.56;100.00
37610;BME280;23457;51.966;8.230;2023-04-15T12:19:18;100515.81;;;9.69;100.00
37610;BME280;23457;51.966;8.230;2023-04-15T12:21:48;100518.25;;;9.58;100.00
37610;BME280;23457;51.966;8.230;2023-04-15T12:24:19;100519.81;;;9.49;100.00
37610;BME280;23457;51.966;8.230;2023-04-15T12:26:52;100521.81;;;9.66;100.00
37610;BME280;23457;51.966;8.230;2023-04-15T12:29:23;100521.69;;;9.57;100.00
37610;BME280;23457;51.966;8.230;2023-04-15T12:31:56;100522.59;;;9.59;100.00
37610;BME280;23457;51.966;8.230;2023-04-15T12:34:28;100525.34;;;9.70;100.00
37610;BME280;23457;51.966;8.230;2023-04-15T12:36:56;100523.59;;;9.69;100.00
37610;BME280;23457;51.966;8.230;2023-04-15T12:39:24;100526.09;;;9.61;100.00
37610;BME280;23457;51.966;8.230;2023-04-15T12:41:51;100527.13;;;9.73;100.00
37610;BME280;23457;51.966;8.230;2023-04-15T12:44:19;100538.25;;;9.65;100.00
37610;BME280;23457;51.966;8.230;2023-04-15T12:46:46;100536.47;;;9.61;100.00
37610;BME280;23457;51.966;8.230;2023-04-15T12:49:13;100545.31;;;9.76;100.00
37610;BME280;23457;51.966;8.230;2023-04-15T12:51:41;100554.78;;;9.70;100.00
37610;BME280;23457;51.966;8.230;2023-04-15T12:54:08;100556.47;;;9.68;100.00
37610;BME280;23457;51.966;8.230;2023-04-15T12:56:34;100557.44;;;9.77;100.00
37610;BME280;23457;51.966;8.230;2023-04-15T12:59:01;100550.69;;;9.85;100.00
37610;BME280;23457;51.966;8.230;2023-04-15T13:01:28;100553.28;;;9.85;100.00
37610;BME280;23457;51.966;8.230;2023-04-15T13:03:55;100561.72;;;9.72;100.00
37610;BME280;23457;51.966;8.230;2023-04-15T13:06:21;100556.72;;;9.84;100.00
37610;BME280;23457;51.966;8.230;2023-04-15T13:08:49;100562.81;;;9.86;100.00
37610;BME280;23457;51.966;8.230;2023-04-15T13:11:24;100575.75;;;9.83;100.00
37610;BME280;23457;51.966;8.230;2023-04-15T13:13:51;100568.81;;;9.83;100.00
37610;BME280;23457;51.966;8.230;2023-04-15T13:16:18;100571.31;;;9.77;100.00
37610;BME280;23457;51.966;8.230;2023-04-15T13:18:45;100569.75;;;9.87;100.00